createdAt,value
2023-02-23T00:01:27.972Z,87.67
2023-02-23T00:03:58.338Z,87.32
2023-02-23T00:06:28.054Z,87.46
2023-02-23T00:08:58.064Z,88.50
2023-02-23T00:11:27.271Z,89.44
2023-02-23T00:13:56.928Z,89.46
2023-02-23T00:16:27.180Z,90.10
2023-02-23T00:19:00.416Z,90.50
2023-02-23T00:21:31.550Z,91.45
2023-02-23T00:24:01.305Z,91.61
2023-02-23T00:26:31.618Z,91.86
2023-02-23T00:29:00.335Z,92.85
2023-02-23T00:31:29.797Z,92.14
2023-02-23T00:34:00.334Z,93.59
2023-02-23T00:36:29.989Z,93.06
2023-02-23T00:39:00.712Z,93.63
2023-02-23T00:41:29.948Z,93.21
2023-02-23T00:44:00.001Z,93.53
2023-02-23T00:46:30.056Z,94.68
2023-02-23T00:49:00.524Z,93.27
2023-02-23T00:51:30.990Z,94.03
2023-02-23T00:54:00.802Z,94.23
2023-02-23T00:56:29.525Z,93.80
2023-02-23T00:58:58.840Z,94.20
2023-02-23T01:01:27.844Z,95.09
2023-02-23T01:03:55.782Z,94.40
2023-02-23T01:06:26.570Z,95.17
2023-02-23T01:08:56.831Z,95.20
2023-02-23T01:11:28.807Z,95.01
2023-02-23T01:13:58.670Z,95.39
2023-02-23T01:16:28.634Z,95.64
2023-02-23T01:18:57.788Z,95.81
2023-02-23T01:21:29.822Z,95.95
2023-02-23T01:23:58.519Z,96.49
2023-02-23T01:26:28.898Z,96.33
2023-02-23T01:28:58.558Z,96.24
2023-02-23T01:31:27.178Z,97.38
2023-02-23T01:33:55.775Z,97.21
2023-02-23T01:36:25.467Z,97.24
2023-02-23T01:38:56.873Z,97.74
2023-02-23T01:41:26.842Z,97.97
2023-02-23T01:43:57.188Z,98.45
2023-02-23T01:46:25.073Z,98.38
2023-02-23T01:48:56.410Z,97.90
2023-02-23T01:51:28.138Z,98.40
2023-02-23T01:54:00.927Z,98.56
2023-02-23T01:56:32.775Z,98.92
2023-02-23T01:59:06.426Z,98.67
2023-02-23T02:01:38.590Z,98.66
2023-02-23T02:04:06.824Z,98.50
2023-02-23T02:06:37.322Z,98.46
2023-02-23T02:09:10.759Z,98.15
2023-02-23T02:11:39.316Z,98.58
2023-02-23T02:14:13.184Z,98.74
2023-02-23T02:17:11.260Z,98.25
2023-02-23T02:20:12.799Z,98.35
2023-02-23T02:23:19.682Z,98.08
2023-02-23T02:26:06.178Z,99.35
2023-02-23T02:28:59.627Z,99.21
2023-02-23T02:32:07.964Z,99.27
2023-02-23T02:35:08.060Z,99.03
2023-02-23T02:37:48.425Z,98.67
2023-02-23T02:40:23.298Z,98.97
2023-02-23T02:43:11.990Z,99.45
2023-02-23T02:45:49.922Z,98.81
2023-02-23T02:48:25.808Z,98.25
2023-02-23T02:50:59.397Z,98.05
2023-02-23T02:53:40.979Z,99.13
2023-02-23T02:56:11.055Z,98.96
2023-02-23T02:58:43.579Z,98.67
2023-02-23T03:01:33.211Z,99.40
2023-02-23T03:04:21.536Z,98.71
2023-02-23T03:07:16.115Z,99.33
2023-02-23T03:10:10.111Z,99.13
2023-02-23T03:13:02.960Z,99.18
2023-02-23T03:16:00.275Z,98.78
2023-02-23T03:19:06.287Z,99.93
2023-02-23T03:21:58.880Z,100.00
2023-02-23T03:24:53.308Z,99.24
2023-02-23T03:27:45.113Z,99.64
2023-02-23T03:30:38.173Z,100.00
2023-02-23T03:33:30.737Z,99.54
2023-02-23T03:36:21.423Z,99.98
2023-02-23T03:39:12.173Z,99.37
2023-02-23T03:42:03.149Z,99.33
2023-02-23T03:44:54.948Z,99.42
2023-02-23T03:47:43.961Z,99.79
2023-02-23T03:50:36.382Z,99.86
2023-02-23T03:53:25.821Z,99.72
2023-02-23T03:56:16.237Z,100.00
2023-02-23T03:59:06.815Z,100.00
2023-02-23T04:01:55.175Z,100.00
2023-02-23T04:04:43.028Z,100.00
2023-02-23T04:07:32.517Z,100.00
2023-02-23T04:10:17.793Z,100.00
2023-02-23T04:13:10.558Z,100.00
2023-02-23T04:15:40.289Z,100.00
2023-02-23T04:18:14.381Z,100.00
2023-02-23T04:20:42.282Z,99.90
2023-02-23T04:23:10.377Z,100.00
2023-02-23T04:25:38.208Z,100.00
2023-02-23T04:28:06.423Z,100.00
2023-02-23T04:30:34.585Z,100.00
2023-02-23T04:33:02.453Z,100.00
2023-02-23T04:35:31.674Z,100.00
2023-02-23T04:37:59.722Z,99.76
2023-02-23T04:40:28.694Z,100.00
2023-02-23T04:42:57.241Z,100.00
2023-02-23T04:45:27.074Z,100.00
2023-02-23T04:47:55.048Z,99.93
2023-02-23T04:50:22.955Z,99.97
2023-02-23T04:52:53.085Z,100.00
2023-02-23T04:55:23.388Z,100.00
2023-02-23T04:57:51.394Z,100.00
2023-02-23T05:00:20.178Z,100.00
2023-02-23T05:02:49.624Z,99.76
2023-02-23T05:05:18.674Z,100.00
2023-02-23T05:07:46.686Z,99.91
2023-02-23T05:10:15.864Z,99.81
2023-02-23T05:12:43.634Z,99.81
2023-02-23T05:15:12.271Z,100.00
2023-02-23T05:17:42.298Z,100.00
2023-02-23T05:20:12.173Z,99.66
2023-02-23T05:22:40.264Z,100.00
2023-02-23T05:25:10.137Z,99.72
2023-02-23T05:27:39.800Z,99.89
2023-02-23T05:30:09.930Z,99.86
2023-02-23T05:32:38.185Z,99.90
2023-02-23T05:35:07.122Z,100.00
2023-02-23T05:37:34.943Z,99.72
2023-02-23T05:40:02.774Z,100.00
2023-02-23T05:42:30.843Z,100.00
2023-02-23T05:45:00.005Z,100.00
2023-02-23T05:47:27.855Z,100.00
2023-02-23T05:49:55.655Z,100.00
2023-02-23T05:52:23.547Z,100.00
2023-02-23T05:54:51.460Z,100.00
2023-02-23T05:57:19.279Z,100.00
2023-02-23T05:59:47.142Z,100.00
2023-02-23T06:02:16.555Z,100.00
2023-02-23T06:04:44.826Z,100.00
2023-02-23T06:07:12.702Z,100.00
2023-02-23T06:09:42.893Z,100.00
2023-02-23T06:12:11.890Z,100.00
2023-02-23T06:14:39.757Z,100.00
2023-02-23T06:17:08.168Z,100.00
2023-02-23T06:19:37.870Z,100.00
2023-02-23T06:22:05.738Z,100.00
2023-02-23T06:24:34.378Z,100.00
2023-02-23T06:27:02.286Z,99.91
2023-02-23T06:29:30.155Z,100.00
2023-02-23T06:32:00.702Z,100.00
2023-02-23T06:34:29.038Z,100.00
2023-02-23T06:36:58.429Z,100.00
2023-02-23T06:39:26.410Z,100.00
2023-02-23T06:41:54.228Z,100.00
2023-02-23T06:44:22.620Z,100.00
2023-02-23T06:46:50.486Z,100.00
2023-02-23T06:49:18.394Z,100.00
2023-02-23T06:51:46.247Z,100.00
2023-02-23T06:54:16.228Z,100.00
2023-02-23T06:56:44.118Z,100.00
2023-02-23T06:59:12.049Z,100.00
2023-02-23T07:01:39.850Z,100.00
2023-02-23T07:04:08.182Z,100.00
2023-02-23T07:06:36.077Z,100.00
2023-02-23T07:09:03.929Z,100.00
2023-02-23T07:11:33.097Z,100.00
2023-02-23T07:14:01.472Z,100.00
2023-02-23T07:16:29.760Z,100.00
2023-02-23T07:18:57.685Z,100.00
2023-02-23T07:21:25.561Z,100.00
2023-02-23T07:23:53.458Z,100.00
2023-02-23T07:26:21.325Z,100.00
2023-02-23T07:28:51.827Z,100.00
2023-02-23T07:31:21.610Z,100.00
2023-02-23T07:33:49.640Z,100.00
2023-02-23T07:36:17.437Z,100.00
2023-02-23T07:38:45.381Z,100.00
2023-02-23T07:41:13.247Z,100.00
2023-02-23T07:43:41.251Z,100.00
2023-02-23T07:46:10.507Z,100.00
2023-02-23T07:48:39.284Z,100.00
2023-02-23T07:51:11.144Z,99.84
2023-02-23T07:53:38.984Z,99.76
2023-02-23T07:56:08.414Z,99.89
2023-02-23T07:58:36.396Z,99.18
2023-02-23T08:01:05.219Z,99.76
2023-02-23T08:03:34.705Z,99.06
2023-02-23T08:06:02.579Z,99.59
2023-02-23T08:08:30.424Z,98.36
2023-02-23T08:11:01.825Z,97.85
2023-02-23T08:13:29.834Z,98.76
2023-02-23T08:15:57.959Z,99.49
2023-02-23T08:18:26.256Z,98.17
2023-02-23T08:21:00.417Z,97.77
2023-02-23T08:23:30.377Z,98.36
2023-02-23T08:25:59.701Z,97.68
2023-02-23T08:28:28.150Z,97.85
2023-02-23T08:30:56.195Z,97.76
2023-02-23T08:33:24.226Z,97.36
2023-02-23T08:35:53.525Z,98.27
2023-02-23T08:38:22.823Z,97.86
2023-02-23T08:40:50.681Z,98.34
2023-02-23T08:43:18.505Z,97.29
2023-02-23T08:45:46.439Z,96.57
2023-02-23T08:48:14.300Z,95.73
2023-02-23T08:50:42.087Z,96.18
2023-02-23T08:53:10.617Z,96.09
2023-02-23T08:55:40.270Z,96.33
2023-02-23T08:58:10.773Z,96.46
2023-02-23T09:00:39.382Z,96.12
2023-02-23T09:03:07.806Z,96.03
2023-02-23T09:05:38.832Z,95.73
2023-02-23T09:08:07.243Z,95.45
2023-02-23T09:10:36.184Z,95.30
2023-02-23T09:13:05.376Z,95.44
2023-02-23T09:15:33.178Z,95.23
2023-02-23T09:18:02.368Z,94.64
2023-02-23T09:20:30.257Z,94.86
2023-02-23T09:22:58.101Z,95.85
2023-02-23T09:25:27.254Z,96.04
2023-02-23T09:27:57.032Z,96.72
2023-02-23T09:30:27.913Z,94.50
2023-02-23T09:32:56.586Z,94.75
2023-02-23T09:35:25.573Z,94.94
2023-02-23T09:37:56.389Z,93.87
2023-02-23T09:40:26.215Z,93.60
2023-02-23T09:43:03.912Z,94.42
2023-02-23T09:45:41.001Z,94.46
2023-02-23T09:48:18.999Z,93.27
2023-02-23T09:50:50.917Z,91.49
2023-02-23T09:53:34.077Z,90.52
2023-02-23T09:56:04.175Z,89.35
2023-02-23T09:58:35.258Z,89.50
2023-02-23T10:01:34.694Z,89.50
2023-02-23T10:04:08.747Z,88.98
2023-02-23T10:06:36.573Z,88.83
2023-02-23T10:09:15.639Z,88.71
2023-02-23T10:11:51.530Z,89.07
2023-02-23T10:14:31.680Z,85.19
2023-02-23T10:17:15.610Z,86.64
2023-02-23T10:19:52.198Z,86.36
2023-02-23T10:22:21.748Z,85.94
2023-02-23T10:24:55.293Z,84.73
2023-02-23T10:27:29.043Z,83.48
2023-02-23T10:30:00.232Z,82.69
2023-02-23T10:32:38.999Z,80.37
2023-02-23T10:35:12.856Z,78.91
2023-02-23T10:37:40.789Z,79.02
2023-02-23T10:40:16.627Z,79.18
2023-02-23T10:42:44.895Z,77.16
2023-02-23T10:45:19.716Z,76.04
2023-02-23T10:47:51.297Z,75.93
2023-02-23T10:50:22.489Z,77.02
2023-02-23T10:52:54.045Z,76.64
2023-02-23T10:55:26.359Z,76.03
2023-02-23T10:58:04.279Z,76.85
2023-02-23T11:00:33.795Z,75.58
2023-02-23T11:03:04.377Z,75.87
2023-02-23T11:05:36.054Z,74.78
2023-02-23T11:08:22.290Z,74.45
2023-02-23T11:10:58.505Z,75.35
2023-02-23T11:13:28.916Z,75.24
2023-02-23T11:16:05.834Z,75.92
2023-02-23T11:18:35.203Z,75.64
2023-02-23T11:21:03.263Z,76.47
2023-02-23T11:23:35.947Z,76.52
2023-02-23T11:26:05.902Z,76.32
2023-02-23T11:28:35.768Z,76.24
2023-02-23T11:31:06.084Z,77.02
2023-02-23T11:33:37.469Z,76.67
2023-02-23T11:36:26.580Z,76.92
2023-02-23T11:39:03.406Z,76.11
2023-02-23T11:41:32.901Z,75.77
2023-02-23T11:44:06.104Z,75.68
2023-02-23T11:46:39.271Z,75.80
2023-02-23T11:49:09.930Z,74.44
2023-02-23T11:51:41.244Z,75.11
2023-02-23T11:54:21.281Z,75.77
2023-02-23T11:56:52.080Z,75.13
2023-02-23T11:59:26.455Z,74.52
2023-02-23T12:01:57.844Z,75.23
2023-02-23T12:04:31.494Z,75.14
2023-02-23T12:07:24.817Z,74.81
2023-02-23T12:10:03.051Z,73.88
2023-02-23T12:12:34.673Z,73.78
2023-02-23T12:15:09.486Z,74.94
2023-02-23T12:17:42.055Z,75.80
2023-02-23T12:20:19.078Z,75.01
2023-02-23T12:22:52.422Z,75.64
2023-02-23T12:25:26.789Z,75.59
2023-02-23T12:28:10.389Z,76.38
2023-02-23T12:30:49.750Z,77.19
2023-02-23T12:33:29.303Z,75.56
2023-02-23T12:36:04.771Z,75.04
2023-02-23T12:38:41.521Z,75.79
2023-02-23T12:41:13.514Z,76.43
2023-02-23T12:43:49.479Z,75.74
2023-02-23T12:46:23.104Z,75.22
2023-02-23T12:48:57.398Z,75.51
2023-02-23T12:51:34.543Z,73.40
2023-02-23T12:54:04.352Z,74.40
2023-02-23T12:56:45.447Z,74.07
2023-02-23T12:59:26.145Z,74.23
2023-02-23T13:01:58.595Z,74.43
2023-02-23T13:04:40.660Z,75.66
2023-02-23T13:07:19.511Z,75.49
2023-02-23T13:10:01.178Z,74.82
2023-02-23T13:12:51.727Z,75.15
2023-02-23T13:15:27.310Z,74.05
2023-02-23T13:18:01.616Z,73.90
2023-02-23T13:20:37.125Z,73.23
2023-02-23T13:23:15.680Z,72.47
2023-02-23T13:25:55.573Z,73.45
2023-02-23T13:28:43.089Z,73.54
2023-02-23T13:31:23.403Z,73.08
2023-02-23T13:33:53.076Z,72.75
2023-02-23T13:36:22.788Z,72.73
2023-02-23T13:39:19.174Z,72.29
2023-02-23T13:41:55.950Z,72.40
2023-02-23T13:44:34.199Z,72.27
2023-02-23T13:47:12.876Z,75.77
2023-02-23T13:49:47.511Z,78.47
2023-02-23T13:52:23.277Z,79.02
2023-02-23T13:55:02.040Z,80.57
2023-02-23T13:57:31.693Z,81.73
2023-02-23T14:00:00.802Z,82.01
2023-02-23T14:02:38.051Z,81.52
2023-02-23T14:05:16.657Z,82.09
2023-02-23T14:07:47.926Z,82.75
2023-02-23T14:10:21.972Z,83.94
2023-02-23T14:13:08.275Z,83.69
2023-02-23T14:15:45.765Z,85.33
2023-02-23T14:18:33.501Z,85.04
2023-02-23T14:21:11.261Z,84.98
2023-02-23T14:23:53.091Z,83.69
2023-02-23T14:26:42.479Z,84.21
2023-02-23T14:29:26.637Z,84.98
2023-02-23T14:32:06.010Z,85.92
2023-02-23T14:34:51.094Z,84.66
2023-02-23T14:37:32.083Z,84.38
2023-02-23T14:40:11.997Z,84.09
2023-02-23T14:42:42.159Z,84.99
2023-02-23T14:45:20.654Z,84.06
2023-02-23T14:47:51.843Z,85.43
2023-02-23T14:50:26.814Z,84.47
2023-02-23T14:52:56.553Z,83.63
2023-02-23T14:55:28.894Z,84.06
2023-02-23T14:57:58.965Z,84.25
2023-02-23T15:00:28.877Z,84.12
2023-02-23T15:03:00.223Z,84.21
2023-02-23T15:05:30.247Z,83.51
2023-02-23T15:08:01.145Z,83.80
2023-02-23T15:10:33.872Z,83.20
2023-02-23T15:13:10.276Z,83.54
2023-02-23T15:15:45.327Z,84.23
2023-02-23T15:18:23.361Z,84.40
2023-02-23T15:20:51.673Z,84.88
2023-02-23T15:23:20.582Z,85.00
2023-02-23T15:25:51.083Z,85.11
2023-02-23T15:28:27.940Z,85.69
2023-02-23T15:30:57.485Z,86.28
2023-02-23T15:33:28.821Z,86.11
2023-02-23T15:36:04.189Z,85.70
2023-02-23T15:38:43.344Z,85.87
2023-02-23T15:41:18.956Z,85.93
2023-02-23T15:43:48.501Z,85.47
2023-02-23T15:46:24.066Z,85.56
2023-02-23T15:48:54.567Z,85.46
2023-02-23T15:51:31.522Z,85.59
2023-02-23T15:54:01.526Z,85.09
2023-02-23T15:56:30.943Z,84.84
2023-02-23T15:59:08.143Z,85.31
2023-02-23T16:01:43.917Z,85.15
2023-02-23T16:04:18.551Z,85.53
2023-02-23T16:07:07.892Z,85.34
2023-02-23T16:09:39.518Z,85.07
2023-02-23T16:12:14.184Z,85.63
2023-02-23T16:14:47.798Z,85.61
2023-02-23T16:17:25.962Z,86.12
2023-02-23T16:19:56.402Z,85.72
2023-02-23T16:22:27.004Z,86.11
2023-02-23T16:25:00.530Z,86.15
2023-02-23T16:27:30.623Z,85.19
2023-02-23T16:30:07.020Z,86.07
2023-02-23T16:32:37.974Z,85.54
2023-02-23T16:35:15.298Z,86.15
2023-02-23T16:37:59.101Z,86.11
2023-02-23T16:40:26.982Z,87.06
2023-02-23T16:42:59.054Z,86.25
2023-02-23T16:45:29.539Z,86.47
2023-02-23T16:48:02.054Z,86.11
2023-02-23T16:50:30.760Z,85.60
2023-02-23T16:52:58.613Z,85.67
2023-02-23T16:55:28.708Z,85.87
2023-02-23T16:57:59.024Z,86.05
2023-02-23T17:00:30.792Z,85.63
2023-02-23T17:03:00.899Z,85.45
2023-02-23T17:05:30.445Z,85.37
2023-02-23T17:07:59.148Z,85.66
2023-02-23T17:10:29.554Z,85.80
2023-02-23T17:12:58.979Z,86.03
2023-02-23T17:15:31.029Z,86.01
2023-02-23T17:17:58.923Z,86.33
2023-02-23T17:20:27.887Z,86.59
2023-02-23T17:22:57.175Z,87.51
2023-02-23T17:25:26.562Z,88.70
2023-02-23T17:27:54.652Z,89.57
2023-02-23T17:30:23.372Z,90.19
2023-02-23T17:32:54.766Z,91.48
2023-02-23T17:35:23.371Z,92.12
2023-02-23T17:37:51.549Z,93.56
2023-02-23T17:40:28.864Z,93.42
2023-02-23T17:42:58.559Z,95.13
2023-02-23T17:45:29.227Z,95.58
2023-02-23T17:47:59.399Z,95.70
2023-02-23T17:50:28.024Z,96.54
2023-02-23T17:52:56.996Z,96.35
2023-02-23T17:55:25.872Z,97.48
2023-02-23T17:57:53.781Z,96.94
2023-02-23T18:00:22.298Z,98.11
2023-02-23T18:02:50.267Z,97.32
2023-02-23T18:05:19.726Z,97.41
2023-02-23T18:07:48.643Z,97.96
2023-02-23T18:10:17.510Z,98.63
2023-02-23T18:12:47.533Z,98.32
2023-02-23T18:15:15.513Z,97.93
2023-02-23T18:17:43.402Z,98.45
2023-02-23T18:20:14.903Z,98.52
2023-02-23T18:22:44.424Z,99.04
2023-02-23T18:25:21.259Z,98.63
2023-02-23T18:27:51.524Z,98.56
2023-02-23T18:30:19.851Z,98.71
2023-02-23T18:32:48.166Z,98.79
2023-02-23T18:35:16.121Z,99.27
2023-02-23T18:37:45.413Z,99.12
2023-02-23T18:40:21.239Z,98.83
2023-02-23T18:42:49.206Z,99.68
2023-02-23T18:45:17.807Z,100.00
2023-02-23T18:47:45.786Z,99.63
2023-02-23T18:50:19.027Z,99.88
2023-02-23T18:52:50.782Z,100.00
2023-02-23T18:55:19.769Z,100.00
2023-02-23T18:57:48.197Z,100.00
2023-02-23T19:00:19.064Z,100.00
2023-02-23T19:02:47.415Z,100.00
2023-02-23T19:05:16.599Z,100.00
2023-02-23T19:07:45.240Z,100.00
2023-02-23T19:10:16.362Z,100.00
2023-02-23T19:12:44.536Z,100.00
2023-02-23T19:15:13.293Z,100.00
2023-02-23T19:17:41.156Z,100.00
2023-02-23T19:20:13.076Z,100.00
2023-02-23T19:22:42.100Z,100.00
2023-02-23T19:25:14.529Z,100.00
2023-02-23T19:27:44.395Z,100.00
2023-02-23T19:30:14.553Z,100.00
2023-02-23T19:32:43.411Z,100.00
2023-02-23T19:35:14.523Z,100.00
2023-02-23T19:37:48.357Z,100.00
2023-02-23T19:40:20.720Z,100.00
2023-02-23T19:42:52.698Z,100.00
2023-02-23T19:45:21.818Z,100.00
2023-02-23T19:47:52.591Z,100.00
2023-02-23T19:50:21.237Z,100.00
2023-02-23T19:52:50.037Z,100.00
2023-02-23T19:55:20.288Z,100.00
2023-02-23T19:57:48.192Z,100.00
2023-02-23T20:00:18.615Z,100.00
2023-02-23T20:02:52.284Z,100.00
2023-02-23T20:05:20.278Z,100.00
2023-02-23T20:07:48.471Z,100.00
2023-02-23T20:10:16.886Z,100.00
2023-02-23T20:12:44.927Z,100.00
2023-02-23T20:15:14.778Z,100.00
2023-02-23T20:17:44.087Z,100.00
2023-02-23T20:20:13.236Z,100.00
2023-02-23T20:22:43.258Z,100.00
2023-02-23T20:25:12.620Z,100.00
2023-02-23T20:27:41.391Z,100.00
2023-02-23T20:30:10.787Z,100.00
2023-02-23T20:32:39.015Z,100.00
2023-02-23T20:35:11.314Z,100.00
2023-02-23T20:37:49.769Z,100.00
2023-02-23T20:40:27.372Z,100.00
2023-02-23T20:42:55.236Z,100.00
2023-02-23T20:45:25.772Z,100.00
2023-02-23T20:47:54.072Z,100.00
2023-02-23T20:50:28.514Z,100.00
2023-02-23T20:52:57.054Z,100.00
2023-02-23T20:55:27.129Z,100.00
2023-02-23T20:57:55.920Z,100.00
2023-02-23T21:00:32.047Z,100.00
2023-02-23T21:03:01.720Z,100.00
2023-02-23T21:05:33.077Z,100.00
2023-02-23T21:08:01.981Z,100.00
2023-02-23T21:10:32.366Z,100.00
2023-02-23T21:13:00.915Z,100.00
2023-02-23T21:15:30.055Z,100.00
2023-02-23T21:17:59.427Z,100.00
2023-02-23T21:20:27.879Z,100.00
2023-02-23T21:22:57.234Z,100.00
2023-02-23T21:25:26.758Z,100.00
2023-02-23T21:27:55.143Z,100.00
2023-02-23T21:30:28.590Z,100.00
2023-02-23T21:32:59.482Z,100.00
2023-02-23T21:35:27.464Z,100.00
2023-02-23T21:37:55.300Z,100.00
2023-02-23T21:40:24.937Z,100.00
2023-02-23T21:42:53.357Z,100.00
2023-02-23T21:45:21.426Z,100.00
2023-02-23T21:47:50.093Z,100.00
2023-02-23T21:50:20.132Z,100.00
2023-02-23T21:52:51.200Z,100.00
2023-02-23T21:55:22.739Z,100.00
2023-02-23T21:57:52.844Z,100.00
2023-02-23T22:00:22.752Z,100.00
2023-02-23T22:02:51.395Z,100.00
2023-02-23T22:05:20.717Z,100.00
2023-02-23T22:07:50.015Z,100.00
2023-02-23T22:10:19.396Z,100.00
2023-02-23T22:12:47.577Z,100.00
2023-02-23T22:15:17.190Z,100.00
2023-02-23T22:17:45.380Z,100.00
2023-02-23T22:20:13.906Z,100.00
2023-02-23T22:22:42.866Z,100.00
2023-02-23T22:25:11.677Z,100.00
2023-02-23T22:27:41.590Z,100.00
2023-02-23T22:30:12.175Z,100.00
2023-02-23T22:32:42.598Z,100.00
2023-02-23T22:35:11.799Z,100.00
2023-02-23T22:37:39.814Z,100.00
2023-02-23T22:40:14.369Z,100.00
2023-02-23T22:42:43.429Z,100.00
2023-02-23T22:45:12.579Z,100.00
2023-02-23T22:47:41.875Z,100.00
2023-02-23T22:50:12.185Z,100.00
2023-02-23T22:52:40.739Z,100.00
2023-02-23T22:55:09.431Z,100.00
2023-02-23T22:57:37.332Z,100.00
2023-02-23T23:00:08.408Z,100.00
2023-02-23T23:02:36.678Z,100.00
2023-02-23T23:05:07.119Z,100.00
2023-02-23T23:07:35.054Z,100.00
2023-02-23T23:10:05.430Z,100.00
2023-02-23T23:12:34.429Z,100.00
2023-02-23T23:15:03.154Z,100.00
2023-02-23T23:17:32.521Z,100.00
2023-02-23T23:20:01.153Z,100.00
2023-02-23T23:22:33.229Z,100.00
2023-02-23T23:25:01.106Z,100.00
2023-02-23T23:27:28.913Z,100.00
2023-02-23T23:29:57.310Z,100.00
2023-02-23T23:32:27.494Z,100.00
2023-02-23T23:34:57.324Z,100.00
2023-02-23T23:37:29.018Z,100.00
2023-02-23T23:40:00.238Z,100.00
2023-02-23T23:42:28.281Z,100.00
2023-02-23T23:44:57.018Z,100.00
2023-02-23T23:47:25.123Z,100.00
2023-02-23T23:49:54.732Z,100.00
2023-02-23T23:52:22.825Z,100.00
2023-02-23T23:54:50.767Z,100.00
2023-02-23T23:57:21.221Z,100.00
2023-02-23T23:59:49.567Z,100.00
